Currently 44°F in San Jacinto, California, USA
44°F
48°F / 44°F
calm
0.00"
Friday, April 20, 2018 3:35 AM PDT

San Jacinto, California Weather Summary
Last 36 Hours

Temperature Winds Hourly Humidity Dewpoint
Time Report Norm Report Norm Max Gusts Precip. Rpt. Norm Rpt. Norm Pressure
1Fri 03:35 AM  44.1°F  52°F  calm  calm  3 mph  0.00"  80%  72%  38°F  42°F  30.21"
3Fri 03:32 AM  44.1°F  52°F  1 mph SE  1 mph  3 mph  ----  79%  72%  38°F  42°F  30.21"
Fri 03:00 AM  45.0°F  52°F  2 mph SE  calm  6 mph  0.00"  79%  70%  39°F  42°F  30.20"
Fri 02:00 AM  45.0°F  53°F  2 mph E  calm  8 mph  0.00"  79%  68%  39°F  43°F  30.19"
Fri 01:00 AM  46.6°F  55°F  3 mph SW  calm  3 mph  0.00"  77%  66%  39°F  43°F  30.16"
2Fri 12:00 AM  47.7°F  56°F  calm  1 mph  7 mph  0.00"  76%  64%  40°F  44°F  30.16"
Thu 11:00 PM  48.9°F  58°F  5 mph SW  1 mph  8 mph  0.00"  74%  62%  41°F  44°F  30.15"
Thu 10:00 PM  51.1°F  60°F  5 mph SW  1 mph  7 mph  0.00"  69%  59%  41°F  45°F  30.15"
Thu 09:00 PM  52.5°F  62°F  3 mph S  1 mph  10 mph  0.00"  68%  55%  42°F  45°F  30.13"
Thu 08:00 PM  54.0°F  64°F  5 mph W  2 mph  9 mph  0.00"  63%  50%  41°F  45°F  30.11"
Thu 07:00 PM  55.8°F  68°F  6 mph NW  3 mph  10 mph  0.00"  55%  42%  39°F  44°F  30.09"
Thu 06:00 PM  56.8°F  72°F  4 mph NW  5 mph  11 mph  0.00"  53%  34%  39°F  41°F  30.08"
Thu 05:00 PM  57.0°F  74°F  6 mph NW  5 mph  15 mph  0.00"  52%  30%  39°F  40°F  30.08"
Thu 04:00 PM  56.3°F  76°F  8 mph NW  5 mph  15 mph  0.00"  55%  27%  40°F  38°F  30.08"
Thu 03:00 PM  56.8°F  76°F  7 mph W  4 mph  15 mph  0.00"  52%  26%  39°F  37°F  30.10"
Thu 02:00 PM  56.5°F  75°F  4 mph NW  3 mph  10 mph  0.00"  48%  26%  36°F  37°F  30.11"
Thu 01:00 PM  55.8°F  74°F  2 mph S  3 mph  10 mph  0.00"  49%  28%  36°F  37°F  30.10"
Thu 12:00 PM  52.9°F  72°F  3 mph E  2 mph  11 mph  0.01"  60%  31%  39°F  39°F  30.12"
Thu 11:00 AM  49.6°F  68°F  4 mph SE  1 mph  17 mph  0.00"  70%  37%  40°F  40°F  30.12"
Thu 10:00 AM  51.4°F  64°F  8 mph W  1 mph  15 mph  0.00"  61%  46%  38°F  42°F  30.12"
Thu 09:00 AM  50.9°F  59°F  9 mph SW  1 mph  11 mph  0.00"  58%  56%  36°F  43°F  30.10"
Thu 08:00 AM  49.3°F  54°F  3 mph SW  calm  9 mph  0.00"  71%  65%  40°F  42°F  30.10"
Thu 07:00 AM  47.8°F  50°F  4 mph SW  calm  11 mph  0.00"  77%  73%  41°F  41°F  30.09"
Thu 06:00 AM  48.9°F  49°F  6 mph SW  calm  11 mph  0.00"  81%  74%  43°F  41°F  30.08"
Thu 05:00 AM  48.7°F  50°F  4 mph SE  calm  8 mph  0.00"  79%  73%  42°F  42°F  30.07"
Thu 04:00 AM  48.6°F  51°F  4 mph E  calm  7 mph  0.00"  76%  71%  41°F  42°F  30.07"
Thu 03:00 AM  49.6°F  52°F  3 mph SE  calm  8 mph  0.00"  80%  69%  43°F  42°F  30.07"
Thu 02:00 AM  49.5°F  53°F  calm  calm  9 mph  0.00"  73%  66%  41°F  42°F  30.07"
Thu 01:00 AM  50.0°F  55°F  2 mph S  calm  7 mph  0.00"  80%  64%  44°F  43°F  30.08"
Thu 12:00 AM  50.5°F  56°F  1 mph SW  calm  6 mph  0.00"  78%  62%  44°F  43°F  30.09"
Wed 11:00 PM  52.3°F  58°F  5 mph SW  1 mph  8 mph  0.00"  70%  59%  42°F  44°F  30.09"
Wed 10:00 PM  55.0°F  60°F  3 mph SW  1 mph  7 mph  0.00"  52%  56%  37°F  44°F  30.08"
Wed 09:00 PM  57.9°F  62°F  4 mph S  1 mph  8 mph  0.00"  41%  53%  33°F  44°F  30.08"
Wed 08:00 PM  60.6°F  65°F  4 mph S  2 mph  15 mph  0.00"  33%  48%  30°F  44°F  30.06"
Wed 07:00 PM  64.0°F  69°F  9 mph SW  3 mph  17 mph  0.00"  34%  41%  34°F  43°F  30.05"
Wed 06:00 PM  67.5°F  73°F  9 mph SW  4 mph  18 mph  0.00"  30%  33%  34°F  41°F  30.03"
Wed 05:00 PM  69.1°F  75°F  11 mph SW  5 mph  21 mph  0.00"  27%  29%  32°F  39°F  30.04"
Wed 04:00 PM  71.6°F  76°F  12 mph SW  5 mph  24 mph  0.00"  24%  26%  31°F  38°F  30.06"

  1. Current weather data. No green row appears if the current weather data is also the high or low for the current day.
  2. High temperature for the current day.
  3. Low temperature for the current day.

The San Jacinto, California weather pages are a service of WeatherCurrents. San Jacinto is located in the heart of the San Jacinto Valley, near Hemet, the Soboba Casino, and at the foot of the San Jacinto Mountains.
Copyright ©Fri Apr 20 03:36:38 PDT 2018  WeatherCurrents. All rights reserved. - Submit questions and comments - Privacy Policy

This page automatically refreshes every 10 minutes.